createdAt,value
2022-09-15T00:01:23.420Z,97619.44
2022-09-15T00:03:50.987Z,97612.12
2022-09-15T00:06:18.225Z,97620.50
2022-09-15T00:08:45.217Z,97615.00
2022-09-15T00:11:27.508Z,97631.72
2022-09-15T00:13:55.439Z,97619.50
2022-09-15T00:16:25.542Z,97623.59
2022-09-15T00:18:53.023Z,97621.97
2022-09-15T00:21:24.498Z,97636.66
2022-09-15T00:23:52.027Z,97652.75
2022-09-15T00:26:21.462Z,97663.78
2022-09-15T00:28:48.908Z,97670.69
2022-09-15T00:31:19.429Z,97676.97
2022-09-15T00:33:47.925Z,97683.13
2022-09-15T00:36:15.694Z,97710.47
2022-09-15T00:38:43.616Z,97717.81
2022-09-15T00:41:12.590Z,97727.78
2022-09-15T00:43:53.519Z,97721.87
2022-09-15T00:46:27.924Z,97722.28
2022-09-15T00:49:00.297Z,97720.88
2022-09-15T00:51:46.033Z,97722.28
2022-09-15T00:54:17.650Z,97718.00
2022-09-15T00:56:46.888Z,97714.53
2022-09-15T00:59:19.768Z,97705.59
2022-09-15T01:01:49.909Z,97707.22
2022-09-15T01:04:17.602Z,97713.94
2022-09-15T01:06:48.313Z,97710.28
2022-09-15T01:09:26.834Z,97698.47
2022-09-15T01:11:53.826Z,97703.56
2022-09-15T01:14:21.180Z,97692.97
2022-09-15T01:17:09.716Z,97690.72
2022-09-15T01:20:16.076Z,97688.28
2022-09-15T01:22:53.035Z,97685.22
2022-09-15T01:25:41.924Z,97688.44
2022-09-15T01:28:29.595Z,97690.47
2022-09-15T01:31:02.267Z,97684.34
2022-09-15T01:33:52.344Z,97694.69
2022-09-15T01:36:34.835Z,97687.16
2022-09-15T01:39:13.457Z,97693.28
2022-09-15T01:41:54.760Z,97698.59
2022-09-15T01:44:25.256Z,97703.72
2022-09-15T01:46:57.182Z,97706.34
2022-09-15T01:49:26.982Z,97703.09
2022-09-15T01:51:54.675Z,97705.94
2022-09-15T01:54:33.494Z,97709.00
2022-09-15T01:57:02.132Z,97703.72
2022-09-15T01:59:29.671Z,97720.19
2022-09-15T02:02:01.967Z,97707.16
2022-09-15T02:04:49.561Z,97705.13
2022-09-15T02:07:21.467Z,97706.94
2022-09-15T02:10:00.824Z,97706.56
2022-09-15T02:12:35.615Z,97703.12
2022-09-15T02:15:08.676Z,97699.03
2022-09-15T02:17:39.818Z,97701.91
2022-09-15T02:20:39.052Z,97700.06
2022-09-15T02:23:35.232Z,97706.34
2022-09-15T02:26:06.883Z,97697.59
2022-09-15T02:28:37.240Z,97704.34
2022-09-15T02:31:07.401Z,97700.25
2022-09-15T02:33:40.714Z,97700.84
2022-09-15T02:36:11.017Z,97693.94
2022-09-15T02:38:44.329Z,97691.69
2022-09-15T02:41:13.274Z,97688.44
2022-09-15T02:43:47.631Z,97692.09
2022-09-15T02:46:20.294Z,97687.22
2022-09-15T02:48:47.518Z,97684.63
2022-09-15T02:51:17.011Z,97686.63
2022-09-15T02:53:45.621Z,97695.00
2022-09-15T02:56:12.891Z,97687.69
2022-09-15T02:58:40.218Z,97692.13
2022-09-15T03:01:08.044Z,97687.66
2022-09-15T03:03:36.434Z,97692.78
2022-09-15T03:06:17.637Z,97692.16
2022-09-15T03:08:49.659Z,97697.88
2022-09-15T03:11:19.304Z,97703.59
2022-09-15T03:13:46.887Z,97707.41
2022-09-15T03:16:15.288Z,97706.81
2022-09-15T03:18:42.890Z,97703.75
2022-09-15T03:21:13.221Z,97702.31
2022-09-15T03:23:41.147Z,97699.47
2022-09-15T03:26:09.444Z,97694.59
2022-09-15T03:28:37.751Z,97688.09
2022-09-15T03:31:06.453Z,97680.94
2022-09-15T03:33:33.921Z,97686.88
2022-09-15T03:36:01.491Z,97691.53
2022-09-15T03:38:28.849Z,97687.28
2022-09-15T03:41:04.120Z,97683.81
2022-09-15T03:43:32.082Z,97677.13
2022-09-15T03:46:00.075Z,97689.13
2022-09-15T03:48:28.596Z,97697.88
2022-09-15T03:50:55.722Z,97702.97
2022-09-15T03:53:23.180Z,97712.13
2022-09-15T03:55:50.327Z,97711.72
2022-09-15T03:58:18.489Z,97711.88
2022-09-15T04:00:46.657Z,97714.34
2022-09-15T04:03:14.095Z,97712.72
2022-09-15T04:05:41.984Z,97713.13
2022-09-15T04:08:12.215Z,97730.47
2022-09-15T04:10:40.809Z,97723.72
2022-09-15T04:13:08.558Z,97715.16
2022-09-15T04:15:36.083Z,97722.09
2022-09-15T04:18:04.859Z,97720.44
2022-09-15T04:20:31.988Z,97728.59
2022-09-15T04:22:59.040Z,97724.13
2022-09-15T04:25:27.844Z,97722.66
2022-09-15T04:27:55.453Z,97716.13
2022-09-15T04:30:22.687Z,97723.06
2022-09-15T04:32:51.625Z,97732.44
2022-09-15T04:35:18.789Z,97757.91
2022-09-15T04:37:45.809Z,97760.97
2022-09-15T04:40:13.229Z,97753.03
2022-09-15T04:42:40.321Z,97753.81
2022-09-15T04:45:07.771Z,97755.63
2022-09-15T04:47:35.110Z,97756.69
2022-09-15T04:50:02.159Z,97742.38
2022-09-15T04:52:29.232Z,97730.78
2022-09-15T04:54:59.092Z,97729.53
2022-09-15T04:57:26.097Z,97730.94
2022-09-15T04:59:53.068Z,97729.28
2022-09-15T05:02:20.421Z,97726.84
2022-09-15T05:04:48.994Z,97728.69
2022-09-15T05:07:15.995Z,97746.81
2022-09-15T05:09:43.492Z,97740.09
2022-09-15T05:12:10.481Z,97743.94
2022-09-15T05:14:37.475Z,97750.09
2022-09-15T05:17:04.772Z,97755.78
2022-09-15T05:19:32.081Z,97758.38
2022-09-15T05:21:59.072Z,97773.44
2022-09-15T05:24:26.447Z,97785.25
2022-09-15T05:26:53.433Z,97787.69
2022-09-15T05:29:20.631Z,97795.44
2022-09-15T05:31:47.959Z,97795.06
2022-09-15T05:34:15.396Z,97797.91
2022-09-15T05:36:42.384Z,97807.88
2022-09-15T05:39:09.739Z,97798.25
2022-09-15T05:41:36.704Z,97794.19
2022-09-15T05:44:03.895Z,97791.31
2022-09-15T05:46:31.379Z,97794.53
2022-09-15T05:48:59.141Z,97795.69
2022-09-15T05:51:26.270Z,97783.81
2022-09-15T05:53:53.595Z,97778.84
2022-09-15T05:56:20.760Z,97774.06
2022-09-15T05:58:48.755Z,97766.97
2022-09-15T06:01:24.279Z,97768.19
2022-09-15T06:03:52.806Z,97771.03
2022-09-15T06:06:21.784Z,97776.72
2022-09-15T06:08:55.600Z,97785.13
2022-09-15T06:11:28.970Z,97777.16
2022-09-15T06:13:58.907Z,97784.69
2022-09-15T06:16:26.779Z,97795.09
2022-09-15T06:18:54.309Z,97794.59
2022-09-15T06:21:23.932Z,97784.69
2022-09-15T06:23:55.922Z,97792.41
2022-09-15T06:26:23.706Z,97804.28
2022-09-15T06:28:53.437Z,97815.84
2022-09-15T06:31:21.894Z,97815.28
2022-09-15T06:33:51.806Z,97817.03
2022-09-15T06:36:20.664Z,97811.94
2022-09-15T06:38:48.510Z,97806.78
2022-09-15T06:41:15.880Z,97824.72
2022-09-15T06:43:42.998Z,97828.63
2022-09-15T06:46:15.653Z,97826.88
2022-09-15T06:48:47.437Z,97822.56
2022-09-15T06:51:17.189Z,97827.66
2022-09-15T06:53:45.200Z,97822.75
2022-09-15T06:56:17.019Z,97823.91
2022-09-15T06:58:45.314Z,97827.38
2022-09-15T07:01:15.293Z,97824.66
2022-09-15T07:03:44.098Z,97823.31
2022-09-15T07:06:14.820Z,97831.81
2022-09-15T07:08:42.410Z,97837.78
2022-09-15T07:11:10.356Z,97847.91
2022-09-15T07:13:37.862Z,97845.69
2022-09-15T07:16:07.221Z,97850.09
2022-09-15T07:18:37.564Z,97854.97
2022-09-15T07:21:10.124Z,97852.16
2022-09-15T07:23:37.220Z,97844.59
2022-09-15T07:26:13.151Z,97856.38
2022-09-15T07:28:42.370Z,97859.19
2022-09-15T07:31:11.724Z,97862.13
2022-09-15T07:33:38.772Z,97857.63
2022-09-15T07:36:07.707Z,97860.00
2022-09-15T07:38:35.850Z,97868.28
2022-09-15T07:41:07.792Z,97868.84
2022-09-15T07:43:35.338Z,97859.84
2022-09-15T07:46:03.255Z,97863.22
2022-09-15T07:48:30.513Z,97874.25
2022-09-15T07:50:59.836Z,97861.06
2022-09-15T07:53:30.455Z,97865.13
2022-09-15T07:55:57.752Z,97872.22
2022-09-15T07:58:25.306Z,97875.41
2022-09-15T08:00:52.551Z,97881.94
2022-09-15T08:03:20.010Z,97879.38
2022-09-15T08:05:47.060Z,97871.97
2022-09-15T08:08:14.146Z,97872.31
2022-09-15T08:10:41.799Z,97864.19
2022-09-15T08:13:09.006Z,97886.34
2022-09-15T08:15:39.197Z,97870.59
2022-09-15T08:18:06.527Z,97883.44
2022-09-15T08:20:33.696Z,97877.75
2022-09-15T08:23:00.773Z,97872.88
2022-09-15T08:25:28.180Z,97879.94
2022-09-15T08:27:56.391Z,97882.94
2022-09-15T08:30:23.877Z,97882.37
2022-09-15T08:32:51.221Z,97878.56
2022-09-15T08:35:19.046Z,97878.06
2022-09-15T08:37:46.921Z,97862.09
2022-09-15T08:40:34.962Z,97865.88
2022-09-15T08:43:13.205Z,97866.28
2022-09-15T08:45:52.287Z,97858.44
2022-09-15T08:48:24.706Z,97849.50
2022-09-15T08:50:53.323Z,97852.84
2022-09-15T08:53:24.353Z,97849.16
2022-09-15T08:56:09.359Z,97854.91
2022-09-15T08:58:37.728Z,97857.31
2022-09-15T09:01:11.011Z,97833.66
2022-09-15T09:03:44.875Z,97840.25
2022-09-15T09:06:15.093Z,97842.66
2022-09-15T09:08:48.273Z,97830.41
2022-09-15T09:11:24.533Z,97832.44
2022-09-15T09:13:54.628Z,97824.25
2022-09-15T09:16:46.982Z,97823.53
2022-09-15T09:19:35.991Z,97822.03
2022-09-15T09:22:24.539Z,97815.09
2022-09-15T09:24:53.682Z,97817.84
2022-09-15T09:27:24.463Z,97820.94
2022-09-15T09:30:12.892Z,97815.34
2022-09-15T09:32:48.060Z,97814.81
2022-09-15T09:35:43.892Z,97813.47
2022-09-15T09:38:41.312Z,97810.22
2022-09-15T09:41:13.957Z,97825.78
2022-09-15T09:43:43.105Z,97813.41
2022-09-15T09:46:15.046Z,97804.41
2022-09-15T09:49:19.060Z,97804.00
2022-09-15T09:51:52.210Z,97786.41
2022-09-15T09:54:20.743Z,97794.72
2022-09-15T09:56:49.513Z,97783.19
2022-09-15T09:59:34.975Z,97779.88
2022-09-15T10:02:10.074Z,97780.75
2022-09-15T10:04:39.032Z,97764.44
2022-09-15T10:07:06.622Z,97759.31
2022-09-15T10:09:33.706Z,97753.16
2022-09-15T10:12:02.136Z,97749.44
2022-09-15T10:14:39.898Z,97743.03
2022-09-15T10:17:15.113Z,97742.53
2022-09-15T10:19:59.772Z,97728.28
2022-09-15T10:22:27.135Z,97719.16
2022-09-15T10:24:54.495Z,97714.63
2022-09-15T10:27:30.684Z,97712.50
2022-09-15T10:30:18.278Z,97716.00
2022-09-15T10:32:45.359Z,97718.91
2022-09-15T10:35:15.237Z,97711.84
2022-09-15T10:37:57.337Z,97710.47
2022-09-15T10:40:35.543Z,97717.56
2022-09-15T10:43:19.562Z,97715.69
2022-09-15T10:45:48.958Z,97718.91
2022-09-15T10:48:40.869Z,97711.69
2022-09-15T10:51:52.089Z,97721.63
2022-09-15T10:54:38.268Z,97722.09
2022-09-15T10:57:17.023Z,97731.22
2022-09-15T11:00:06.696Z,97724.47
2022-09-15T11:03:11.807Z,97731.72
2022-09-15T11:06:06.686Z,97724.97
2022-09-15T11:08:39.638Z,97724.75
2022-09-15T11:11:30.665Z,97713.34
2022-09-15T11:14:22.495Z,97714.91
2022-09-15T11:16:49.501Z,97705.66
2022-09-15T11:19:17.311Z,97702.53
2022-09-15T11:21:56.559Z,97712.66
2022-09-15T11:24:29.602Z,97714.97
2022-09-15T11:27:14.426Z,97718.06
2022-09-15T11:29:48.033Z,97715.44
2022-09-15T11:33:07.157Z,97712.59
2022-09-15T11:35:56.830Z,97698.34
2022-09-15T11:38:31.507Z,97694.06
2022-09-15T11:41:16.168Z,97688.22
2022-09-15T11:43:50.875Z,97671.28
2022-09-15T11:46:23.861Z,97664.06
2022-09-15T11:49:14.213Z,97655.06
2022-09-15T11:51:50.723Z,97642.44
2022-09-15T11:54:23.098Z,97627.31
2022-09-15T11:56:51.490Z,97621.25
2022-09-15T11:59:28.946Z,97637.13
2022-09-15T12:02:35.822Z,97647.81
2022-09-15T12:05:19.403Z,97652.87
2022-09-15T12:08:04.997Z,97660.78
2022-09-15T12:10:44.221Z,97658.56
2022-09-15T12:13:17.256Z,97659.03
2022-09-15T12:15:46.559Z,97651.25
2022-09-15T12:18:39.036Z,97652.06
2022-09-15T12:21:34.053Z,97640.72
2022-09-15T12:24:16.479Z,97640.63
2022-09-15T12:26:46.469Z,97634.53
2022-09-15T12:29:22.571Z,97623.44
2022-09-15T12:32:20.322Z,97623.94
2022-09-15T12:34:59.359Z,97620.53
2022-09-15T12:37:37.351Z,97627.25
2022-09-15T12:40:25.612Z,97625.38
2022-09-15T12:42:52.992Z,97628.53
2022-09-15T12:45:25.022Z,97646.91
2022-09-15T12:47:55.590Z,97651.97
2022-09-15T12:50:31.803Z,97667.00
2022-09-15T12:53:12.980Z,97664.91
2022-09-15T12:55:50.011Z,97651.69
2022-09-15T12:58:20.780Z,97636.44
2022-09-15T13:01:14.272Z,97629.97
2022-09-15T13:03:41.320Z,97617.25
2022-09-15T13:06:21.586Z,97624.91
2022-09-15T13:08:53.167Z,97629.87
2022-09-15T13:11:25.515Z,97615.75
2022-09-15T13:14:07.910Z,97605.94
2022-09-15T13:16:39.390Z,97602.16
2022-09-15T13:19:29.687Z,97603.56
2022-09-15T13:22:11.865Z,97615.53
2022-09-15T13:24:45.407Z,97596.56
2022-09-15T13:27:17.201Z,97607.53
2022-09-15T13:30:03.927Z,97613.63
2022-09-15T13:33:18.576Z,97621.16
2022-09-15T13:35:52.122Z,97608.53
2022-09-15T13:38:30.738Z,97619.78
2022-09-15T13:41:34.132Z,97615.63
2022-09-15T13:44:23.199Z,97610.22
2022-09-15T13:46:53.464Z,97613.00
2022-09-15T13:49:50.501Z,97610.13
2022-09-15T13:52:23.427Z,97616.37
2022-09-15T13:55:10.304Z,97620.91
2022-09-15T14:00:34.889Z,97610.34
2022-09-15T14:03:16.387Z,97607.34
2022-09-15T14:05:44.713Z,97613.22
2022-09-15T14:08:22.587Z,97608.81
2022-09-15T14:10:58.578Z,97601.06
2022-09-15T14:13:27.613Z,97596.66
2022-09-15T14:16:11.789Z,97586.31
2022-09-15T14:18:44.601Z,97577.13
2022-09-15T14:21:23.335Z,97573.75
2022-09-15T14:23:52.561Z,97583.34
2022-09-15T14:26:22.717Z,97598.19
2022-09-15T14:29:05.076Z,97613.75
2022-09-15T14:31:40.352Z,97611.38
2022-09-15T14:34:35.061Z,97627.38
2022-09-15T14:37:28.881Z,97649.84
2022-09-15T14:39:58.620Z,97627.06
2022-09-15T14:42:32.495Z,97620.97
2022-09-15T14:48:01.108Z,97642.12
2022-09-15T14:50:32.478Z,97596.78
2022-09-15T14:53:24.797Z,97640.09
2022-09-15T14:56:07.694Z,97669.84
2022-09-15T14:58:50.533Z,97689.22
2022-09-15T15:01:31.742Z,97697.47
2022-09-15T15:04:28.154Z,97663.31
2022-09-15T15:07:25.379Z,97666.44
2022-09-15T15:10:07.914Z,97666.06
2022-09-15T15:12:37.754Z,97648.00
2022-09-15T15:15:06.020Z,97603.09
2022-09-15T15:17:35.796Z,97628.97
2022-09-15T15:20:14.991Z,97660.94
2022-09-15T15:22:43.720Z,97677.91
2022-09-15T15:25:27.542Z,97674.72
2022-09-15T15:27:54.679Z,97664.09
2022-09-15T15:30:29.705Z,97665.75
2022-09-15T15:33:04.868Z,97695.06
2022-09-15T15:35:33.387Z,97700.94
2022-09-15T15:38:03.509Z,97691.00
2022-09-15T15:40:30.895Z,97684.66
2022-09-15T15:43:04.242Z,97661.78
2022-09-15T15:45:34.013Z,97650.56
2022-09-15T15:48:03.101Z,97644.69
2022-09-15T15:50:32.734Z,97646.31
2022-09-15T15:53:00.918Z,97634.66
2022-09-15T15:55:46.235Z,97641.34
2022-09-15T15:58:14.386Z,97643.81
2022-09-15T16:00:47.197Z,97647.19
2022-09-15T16:03:15.825Z,97631.06
2022-09-15T16:05:47.967Z,97608.16
2022-09-15T16:08:20.610Z,97591.81
2022-09-15T16:10:48.729Z,97586.94
2022-09-15T16:13:17.617Z,97590.06
2022-09-15T16:15:45.276Z,97590.06
2022-09-15T16:18:13.054Z,97584.66
2022-09-15T16:20:41.361Z,97569.87
2022-09-15T16:23:14.073Z,97557.25
2022-09-15T16:25:56.339Z,97557.62
2022-09-15T16:28:23.381Z,97548.03
2022-09-15T16:30:50.703Z,97564.59
2022-09-15T16:33:19.024Z,97569.53
2022-09-15T16:35:51.230Z,97559.88
2022-09-15T16:38:20.153Z,97579.63
2022-09-15T16:40:51.284Z,97591.41
2022-09-15T16:43:21.612Z,97597.41
2022-09-15T16:45:49.800Z,97607.25
2022-09-15T16:48:17.265Z,97603.22
2022-09-15T16:51:01.696Z,97604.69
2022-09-15T16:53:33.606Z,97602.13
2022-09-15T16:56:01.070Z,97608.63
2022-09-15T16:58:28.504Z,97614.78
2022-09-15T17:00:56.632Z,97611.94
2022-09-15T17:03:25.745Z,97620.47
2022-09-15T17:05:54.943Z,97633.13
2022-09-15T17:08:25.699Z,97636.38
2022-09-15T17:10:53.519Z,97631.91
2022-09-15T17:13:25.169Z,97628.25
2022-09-15T17:15:55.273Z,97623.75
2022-09-15T17:18:22.883Z,97621.31
2022-09-15T17:20:50.798Z,97617.09
2022-09-15T17:23:23.465Z,97603.06
2022-09-15T17:25:57.465Z,97599.00
2022-09-15T17:28:31.120Z,97587.59
2022-09-15T17:30:59.988Z,97584.34
2022-09-15T17:33:29.017Z,97593.13
2022-09-15T17:35:56.082Z,97588.00
2022-09-15T17:38:23.597Z,97586.41
2022-09-15T17:40:51.830Z,97583.16
2022-09-15T17:43:21.550Z,97598.59
2022-09-15T17:45:49.335Z,97587.44
2022-09-15T17:48:16.834Z,97591.50
2022-09-15T17:50:45.306Z,97588.44
2022-09-15T17:53:23.523Z,97589.66
2022-09-15T17:55:51.199Z,97580.72
2022-09-15T17:58:18.789Z,97600.06
2022-09-15T18:00:46.929Z,97593.13
2022-09-15T18:03:24.707Z,97599.63
2022-09-15T18:05:52.225Z,97594.53
2022-09-15T18:08:19.575Z,97594.97
2022-09-15T18:10:47.067Z,97603.28
2022-09-15T18:13:17.047Z,97605.72
2022-09-15T18:15:44.519Z,97603.88
2022-09-15T18:18:17.315Z,97611.41
2022-09-15T18:20:45.448Z,97612.84
2022-09-15T18:23:14.397Z,97617.31
2022-09-15T18:25:41.966Z,97634.22
2022-09-15T18:28:09.965Z,97619.34
2022-09-15T18:30:41.872Z,97628.53
2022-09-15T18:33:25.572Z,97631.37
2022-09-15T18:35:56.091Z,97631.16
2022-09-15T18:38:23.606Z,97633.19
2022-09-15T18:40:56.050Z,97630.97
2022-09-15T18:43:25.457Z,97629.94
2022-09-15T18:45:55.132Z,97635.22
2022-09-15T18:48:22.223Z,97627.28
2022-09-15T18:50:49.729Z,97628.72
2022-09-15T18:53:16.787Z,97630.34
2022-09-15T18:55:43.842Z,97627.09
2022-09-15T18:58:11.629Z,97643.34
2022-09-15T19:00:39.140Z,97635.03
2022-09-15T19:03:09.307Z,97636.22
2022-09-15T19:05:37.248Z,97638.87
2022-09-15T19:08:04.566Z,97643.75
2022-09-15T19:10:32.468Z,97637.87
2022-09-15T19:12:59.771Z,97636.84
2022-09-15T19:15:29.344Z,97631.78
2022-09-15T19:17:56.401Z,97646.41
2022-09-15T19:20:23.760Z,97653.75
2022-09-15T19:22:51.639Z,97658.41
2022-09-15T19:25:18.945Z,97659.63
2022-09-15T19:27:47.868Z,97670.41
2022-09-15T19:30:15.171Z,97668.97
2022-09-15T19:32:42.191Z,97667.97
2022-09-15T19:35:11.279Z,97669.59
2022-09-15T19:37:40.575Z,97669.19
2022-09-15T19:40:10.480Z,97671.41
2022-09-15T19:42:38.607Z,97665.75
2022-09-15T19:45:06.801Z,97660.44
2022-09-15T19:47:34.224Z,97666.53
2022-09-15T19:50:01.813Z,97670.19
2022-09-15T19:52:28.929Z,97665.09
2022-09-15T19:54:55.928Z,97674.06
2022-09-15T19:57:23.611Z,97679.38
2022-09-15T19:59:50.813Z,97671.84
2022-09-15T20:02:17.907Z,97665.12
2022-09-15T20:04:45.329Z,97668.75
2022-09-15T20:07:12.659Z,97677.94
2022-09-15T20:09:39.891Z,97681.59
2022-09-15T20:12:07.499Z,97702.09
2022-09-15T20:14:34.616Z,97692.72
2022-09-15T20:17:01.886Z,97708.38
2022-09-15T20:19:29.960Z,97704.34
2022-09-15T20:21:56.969Z,97708.78
2022-09-15T20:24:26.872Z,97704.13
2022-09-15T20:26:54.445Z,97708.38
2022-09-15T20:29:21.508Z,97706.34
2022-09-15T20:31:48.669Z,97707.37
2022-09-15T20:34:16.766Z,97703.50
2022-09-15T20:36:44.487Z,97706.78
2022-09-15T20:39:14.515Z,97711.62
2022-09-15T20:41:45.166Z,97720.78
2022-09-15T20:44:15.124Z,97720.59
2022-09-15T20:46:42.398Z,97722.63
2022-09-15T20:49:10.445Z,97717.16
2022-09-15T20:51:37.473Z,97733.00
2022-09-15T20:54:05.318Z,97730.97
2022-09-15T20:56:35.130Z,97740.34
2022-09-15T20:59:04.111Z,97734.81
2022-09-15T21:01:41.187Z,97734.00
2022-09-15T21:04:09.653Z,97745.19
2022-09-15T21:06:37.552Z,97749.47
2022-09-15T21:09:05.193Z,97743.38
2022-09-15T21:11:32.478Z,97740.94
2022-09-15T21:13:59.809Z,97738.91
2022-09-15T21:16:28.380Z,97743.78
2022-09-15T21:18:56.851Z,97753.50
2022-09-15T21:21:26.987Z,97750.66
2022-09-15T21:24:05.115Z,97748.62
2022-09-15T21:26:34.701Z,97750.66
2022-09-15T21:29:02.267Z,97743.97
2022-09-15T21:31:31.929Z,97745.03
2022-09-15T21:33:59.885Z,97736.25
2022-09-15T21:36:29.612Z,97744.41
2022-09-15T21:38:58.252Z,97743.78
2022-09-15T21:41:27.568Z,97740.13
2022-09-15T21:43:55.372Z,97753.16
2022-09-15T21:46:24.757Z,97759.03
2022-09-15T21:48:52.474Z,97757.84
2022-09-15T21:51:24.568Z,97774.31
2022-09-15T21:53:54.536Z,97776.53
2022-09-15T21:56:22.296Z,97787.72
2022-09-15T21:58:49.380Z,97794.00
2022-09-15T22:01:19.294Z,97798.25
2022-09-15T22:03:52.430Z,97794.19
2022-09-15T22:06:21.471Z,97816.13
2022-09-15T22:08:49.026Z,97813.28
2022-09-15T22:11:16.114Z,97819.56
2022-09-15T22:13:44.691Z,97825.06
2022-09-15T22:16:24.984Z,97824.25
2022-09-15T22:18:52.564Z,97822.81
2022-09-15T22:21:22.299Z,97821.59
2022-09-15T22:23:50.261Z,97816.28
2022-09-15T22:26:26.204Z,97815.66
2022-09-15T22:28:54.168Z,97817.69
2022-09-15T22:31:22.491Z,97819.88
2022-09-15T22:33:49.839Z,97823.75
2022-09-15T22:36:19.411Z,97837.34
2022-09-15T22:38:46.924Z,97840.56
2022-09-15T22:41:18.724Z,97842.44
2022-09-15T22:43:48.098Z,97849.94
2022-09-15T22:46:17.049Z,97858.63
2022-09-15T22:48:44.202Z,97857.63
2022-09-15T22:51:12.194Z,97861.88
2022-09-15T22:53:39.387Z,97867.16
2022-09-15T22:56:19.907Z,97875.75
2022-09-15T22:58:48.736Z,97881.25
2022-09-15T23:01:18.559Z,97890.81
2022-09-15T23:03:49.866Z,97895.72
2022-09-15T23:06:17.292Z,97897.31
2022-09-15T23:08:44.605Z,97896.91
2022-09-15T23:11:13.159Z,97888.78
2022-09-15T23:13:41.226Z,97898.34
2022-09-15T23:16:08.998Z,97902.81
2022-09-15T23:18:36.609Z,97893.84
2022-09-15T23:21:08.723Z,97903.38
2022-09-15T23:23:37.781Z,97895.84
2022-09-15T23:26:09.982Z,97898.88
2022-09-15T23:28:37.561Z,97901.28
2022-09-15T23:31:05.238Z,97909.22
2022-09-15T23:33:32.563Z,97908.22
2022-09-15T23:36:00.483Z,97906.56
2022-09-15T23:38:28.070Z,97895.00
2022-09-15T23:40:55.041Z,97903.31
2022-09-15T23:43:22.038Z,97895.81
2022-09-15T23:45:51.133Z,97890.72
2022-09-15T23:48:18.165Z,97889.47
2022-09-15T23:50:45.208Z,97900.88
2022-09-15T23:53:12.944Z,97895.31
2022-09-15T23:55:39.962Z,97889.53
2022-09-15T23:58:07.180Z,97891.56
